createdAt,value
2022-11-24T00:01:03.980Z,1.40
2022-11-24T00:03:30.949Z,1.40
2022-11-24T00:06:02.207Z,1.40
2022-11-24T00:08:29.017Z,1.40
2022-11-24T00:10:57.836Z,1.40
2022-11-24T00:13:24.601Z,1.40
2022-11-24T00:15:51.423Z,1.40
2022-11-24T00:18:18.185Z,1.30
2022-11-24T00:20:52.280Z,1.40
2022-11-24T00:23:19.060Z,1.30
2022-11-24T00:25:48.031Z,1.30
2022-11-24T00:28:14.848Z,1.20
2022-11-24T00:30:43.849Z,1.20
2022-11-24T00:33:15.174Z,1.20
2022-11-24T00:35:41.958Z,1.20
2022-11-24T00:38:11.162Z,1.20
2022-11-24T00:40:38.005Z,1.20
2022-11-24T00:43:04.799Z,1.20
2022-11-24T00:45:31.649Z,1.20
2022-11-24T00:47:58.468Z,1.10
2022-11-24T00:50:25.272Z,1.10
2022-11-24T00:52:56.929Z,1.10
2022-11-24T00:55:23.767Z,1.10
2022-11-24T00:57:50.586Z,1.10
2022-11-24T01:00:22.271Z,1.30
2022-11-24T01:02:49.178Z,1.10
2022-11-24T01:05:16.013Z,1.10
2022-11-24T01:07:45.058Z,1.10
2022-11-24T01:10:11.871Z,1.10
2022-11-24T01:12:41.553Z,1.10
2022-11-24T01:15:09.256Z,1.20
2022-11-24T01:17:38.271Z,1.10
2022-11-24T01:20:07.924Z,1.10
2022-11-24T01:22:38.495Z,1.20
2022-11-24T01:25:09.821Z,1.20
2022-11-24T01:27:36.637Z,1.20
2022-11-24T01:30:03.716Z,1.30
2022-11-24T01:32:30.520Z,1.30
2022-11-24T01:34:57.463Z,1.30
2022-11-24T01:37:24.267Z,1.30
2022-11-24T01:39:51.049Z,1.30
2022-11-24T01:42:17.913Z,1.30
2022-11-24T01:44:44.730Z,1.30
2022-11-24T01:47:36.461Z,1.30
2022-11-24T01:50:03.735Z,1.30
2022-11-24T01:52:38.516Z,1.30
2022-11-24T01:55:08.487Z,1.30
2022-11-24T01:57:46.844Z,1.30
2022-11-24T02:00:14.304Z,1.30
2022-11-24T02:02:42.205Z,1.30
2022-11-24T02:05:14.335Z,1.30
2022-11-24T02:07:43.726Z,1.30
2022-11-24T02:10:13.984Z,1.20
2022-11-24T02:12:42.421Z,1.20
2022-11-24T02:15:10.193Z,1.20
2022-11-24T02:17:37.459Z,1.20
2022-11-24T02:20:06.156Z,1.20
2022-11-24T02:22:47.474Z,1.20
2022-11-24T02:25:16.732Z,1.20
2022-11-24T02:27:50.757Z,1.20
2022-11-24T02:30:22.978Z,1.20
2022-11-24T02:32:49.942Z,1.20
2022-11-24T02:35:17.237Z,1.20
2022-11-24T02:37:46.386Z,1.20
2022-11-24T02:40:18.490Z,1.20
2022-11-24T02:42:45.294Z,1.20
2022-11-24T02:45:12.320Z,1.20
2022-11-24T02:47:39.113Z,1.20
2022-11-24T02:50:06.363Z,1.20
2022-11-24T02:52:33.325Z,1.30
2022-11-24T02:55:00.095Z,1.30
2022-11-24T02:57:26.928Z,1.30
2022-11-24T02:59:53.757Z,1.30
2022-11-24T03:02:25.367Z,1.30
2022-11-24T03:04:52.235Z,1.30
2022-11-24T03:07:21.363Z,1.30
2022-11-24T03:09:48.195Z,1.30
2022-11-24T03:12:14.997Z,1.30
2022-11-24T03:14:44.253Z,1.30
2022-11-24T03:17:13.373Z,1.30
2022-11-24T03:19:40.139Z,1.30
2022-11-24T03:22:07.002Z,1.20
2022-11-24T03:24:34.079Z,1.20
2022-11-24T03:27:03.241Z,1.20
2022-11-24T03:29:34.735Z,1.20
2022-11-24T03:32:01.930Z,1.20
2022-11-24T03:34:31.215Z,1.20
2022-11-24T03:36:58.572Z,1.20
2022-11-24T03:39:25.389Z,1.20
2022-11-24T03:41:52.172Z,1.20
2022-11-24T03:44:18.964Z,1.20
2022-11-24T03:46:47.229Z,1.20
2022-11-24T03:49:14.101Z,1.20
2022-11-24T03:51:40.863Z,1.40
2022-11-24T03:54:07.916Z,1.20
2022-11-24T03:56:34.717Z,1.20
2022-11-24T03:59:01.521Z,1.20
2022-11-24T04:01:28.313Z,1.20
2022-11-24T04:03:55.135Z,1.20
2022-11-24T04:06:21.978Z,1.30
2022-11-24T04:08:48.819Z,1.20
2022-11-24T04:11:35.600Z,1.20
2022-11-24T04:14:02.388Z,1.20
2022-11-24T04:16:29.182Z,1.20
2022-11-24T04:18:58.202Z,1.20
2022-11-24T04:21:25.118Z,1.20
2022-11-24T04:23:56.671Z,1.20
2022-11-24T04:26:25.933Z,1.20
2022-11-24T04:28:52.738Z,1.20
2022-11-24T04:31:21.989Z,1.20
2022-11-24T04:33:48.804Z,2.20
2022-11-24T04:36:15.554Z,1.20
2022-11-24T04:39:23.768Z,1.20
2022-11-24T04:41:34.203Z,1.20
2022-11-24T04:44:01.010Z,1.20
2022-11-24T04:46:27.899Z,1.20
2022-11-24T04:48:54.712Z,1.20
2022-11-24T04:51:21.497Z,1.20
2022-11-24T04:53:51.429Z,1.20
2022-11-24T04:56:18.246Z,1.20
2022-11-24T04:58:47.631Z,1.20
2022-11-24T05:01:16.543Z,1.20
2022-11-24T05:03:43.411Z,1.20
2022-11-24T05:06:12.410Z,1.20
2022-11-24T05:08:44.211Z,1.20
2022-11-24T05:11:10.959Z,1.30
2022-11-24T05:13:37.685Z,1.20
2022-11-24T05:16:04.836Z,1.30
2022-11-24T05:18:34.823Z,1.20
2022-11-24T05:21:01.595Z,1.20
2022-11-24T05:23:28.341Z,1.20
2022-11-24T05:25:55.109Z,1.20
2022-11-24T05:28:21.872Z,1.20
2022-11-24T05:30:48.715Z,1.20
2022-11-24T05:33:19.055Z,1.30
2022-11-24T05:35:51.899Z,1.30
2022-11-24T05:38:23.957Z,1.30
2022-11-24T05:40:55.431Z,1.30
2022-11-24T05:43:24.553Z,1.20
2022-11-24T05:45:53.493Z,1.30
2022-11-24T05:48:22.812Z,1.30
2022-11-24T05:50:56.680Z,1.30
2022-11-24T05:53:23.954Z,1.30
2022-11-24T05:55:50.691Z,1.30
2022-11-24T05:58:17.433Z,1.30
2022-11-24T06:00:46.386Z,1.30
2022-11-24T06:03:13.205Z,1.30
2022-11-24T06:05:40.009Z,1.30
2022-11-24T06:08:06.738Z,1.30
2022-11-24T06:10:33.436Z,1.30
2022-11-24T06:13:04.034Z,1.30
2022-11-24T06:15:30.782Z,1.40
2022-11-24T06:17:57.515Z,1.40
2022-11-24T06:20:29.824Z,1.40
2022-11-24T06:23:00.040Z,1.40
2022-11-24T06:25:27.058Z,1.30
2022-11-24T06:27:53.816Z,1.30
2022-11-24T06:30:23.298Z,1.30
2022-11-24T06:32:53.971Z,1.30
2022-11-24T06:35:23.289Z,1.40
2022-11-24T06:37:50.032Z,1.30
2022-11-24T06:40:19.270Z,1.30
2022-11-24T06:42:51.298Z,1.40
2022-11-24T06:45:18.012Z,1.40
2022-11-24T06:47:44.751Z,1.40
2022-11-24T06:50:11.456Z,1.60
2022-11-24T06:52:38.146Z,1.40
2022-11-24T06:55:05.330Z,1.40
2022-11-24T06:57:35.210Z,1.50
2022-11-24T07:00:02.855Z,1.50
2022-11-24T07:02:29.598Z,1.50
2022-11-24T07:04:56.507Z,1.50
2022-11-24T07:07:23.252Z,1.50
2022-11-24T07:09:49.981Z,1.50
2022-11-24T07:12:16.732Z,1.50
2022-11-24T07:14:45.918Z,1.40
2022-11-24T07:17:14.828Z,1.50
2022-11-24T07:19:41.551Z,1.50
2022-11-24T07:22:08.401Z,1.50
2022-11-24T07:24:35.255Z,1.50
2022-11-24T07:27:02.134Z,1.50
2022-11-24T07:29:28.943Z,1.50
2022-11-24T07:31:56.862Z,1.50
2022-11-24T07:34:28.492Z,1.50
2022-11-24T07:36:55.229Z,1.50
2022-11-24T07:39:22.072Z,1.50
2022-11-24T07:41:48.753Z,1.50
2022-11-24T07:44:15.602Z,1.50
2022-11-24T07:46:42.311Z,1.50
2022-11-24T07:49:08.999Z,1.50
2022-11-24T07:51:38.179Z,1.50
2022-11-24T07:54:04.897Z,1.50
2022-11-24T07:56:31.636Z,1.50
2022-11-24T07:58:58.353Z,1.50
2022-11-24T08:01:25.083Z,1.50
2022-11-24T08:03:51.944Z,1.50
2022-11-24T08:06:30.510Z,1.50
2022-11-24T08:09:01.610Z,1.60
2022-11-24T08:11:28.436Z,1.60
2022-11-24T08:13:55.197Z,1.50
2022-11-24T08:16:24.435Z,1.50
2022-11-24T08:18:52.564Z,1.80
2022-11-24T08:21:19.344Z,1.50
2022-11-24T08:23:46.046Z,1.40
2022-11-24T08:26:19.483Z,1.40
2022-11-24T08:28:46.766Z,1.50
2022-11-24T08:31:15.943Z,1.50
2022-11-24T08:33:42.762Z,1.50
2022-11-24T08:36:11.474Z,1.50
2022-11-24T08:38:38.328Z,1.50
2022-11-24T08:41:07.463Z,1.50
2022-11-24T08:43:34.356Z,1.50
2022-11-24T08:46:02.263Z,1.50
2022-11-24T08:48:29.171Z,2.60
2022-11-24T08:50:57.355Z,1.50
2022-11-24T08:53:24.187Z,1.50
2022-11-24T08:55:50.987Z,1.50
2022-11-24T08:58:20.050Z,1.50
2022-11-24T09:00:46.734Z,1.50
2022-11-24T09:03:13.471Z,1.50
2022-11-24T09:05:55.455Z,1.50
2022-11-24T09:08:22.187Z,1.60
2022-11-24T09:10:48.996Z,1.60
2022-11-24T09:13:15.682Z,1.60
2022-11-24T09:15:46.856Z,1.60
2022-11-24T09:18:13.594Z,1.60
2022-11-24T09:20:40.767Z,1.60
2022-11-24T09:23:07.461Z,1.60
2022-11-24T09:25:34.222Z,1.60
2022-11-24T09:28:01.021Z,1.70
2022-11-24T09:30:27.822Z,1.70
2022-11-24T09:32:56.612Z,1.70
2022-11-24T09:35:25.788Z,1.70
2022-11-24T09:37:52.624Z,1.80
2022-11-24T09:40:25.574Z,1.80
2022-11-24T09:42:54.463Z,1.80
2022-11-24T09:45:48.968Z,1.80
2022-11-24T09:48:20.628Z,1.80
2022-11-24T09:50:47.742Z,2.90
2022-11-24T09:53:17.291Z,1.80
2022-11-24T09:55:50.914Z,1.80
2022-11-24T09:58:18.640Z,1.80
2022-11-24T10:00:46.764Z,1.80
2022-11-24T10:03:37.335Z,1.80
2022-11-24T10:06:11.435Z,1.80
2022-11-24T10:09:02.831Z,1.80
2022-11-24T10:11:35.245Z,1.80
2022-11-24T10:14:05.031Z,1.80
2022-11-24T10:16:55.748Z,1.80
2022-11-24T10:19:50.474Z,1.80
2022-11-24T10:22:38.339Z,1.80
2022-11-24T10:25:08.227Z,1.80
2022-11-24T10:27:43.671Z,1.80
2022-11-24T10:30:19.117Z,1.80
2022-11-24T10:32:49.771Z,1.80
2022-11-24T10:35:19.107Z,2.30
2022-11-24T10:38:03.296Z,1.80
2022-11-24T10:41:04.516Z,1.80
2022-11-24T10:43:31.284Z,1.90
2022-11-24T10:46:12.527Z,2.00
2022-11-24T10:48:49.039Z,1.80
2022-11-24T10:51:41.809Z,1.90
2022-11-24T10:54:11.911Z,1.90
2022-11-24T10:56:40.280Z,1.90
2022-11-24T10:59:25.083Z,1.90
2022-11-24T11:01:52.448Z,1.80
2022-11-24T11:04:21.299Z,1.90
2022-11-24T11:06:50.080Z,1.90
2022-11-24T11:09:21.106Z,1.90
2022-11-24T11:11:51.237Z,1.90
2022-11-24T11:14:32.140Z,1.90
2022-11-24T11:16:58.865Z,1.90
2022-11-24T11:19:58.438Z,1.90
2022-11-24T11:22:26.958Z,1.90
2022-11-24T11:25:27.075Z,1.90
2022-11-24T11:28:22.030Z,1.90
2022-11-24T11:34:16.672Z,2.00
2022-11-24T11:36:50.498Z,2.90
2022-11-24T11:39:23.488Z,2.00
2022-11-24T11:42:00.723Z,2.00
2022-11-24T11:44:29.619Z,2.00
2022-11-24T11:46:59.063Z,2.00
2022-11-24T11:49:25.967Z,2.30
2022-11-24T11:52:15.945Z,2.00
2022-11-24T11:55:07.026Z,2.10
2022-11-24T11:57:56.449Z,2.00
2022-11-24T12:00:23.337Z,2.10
2022-11-24T12:03:40.123Z,2.10
2022-11-24T12:06:15.315Z,2.10
2022-11-24T12:09:21.970Z,2.10
2022-11-24T12:11:57.939Z,2.10
2022-11-24T12:14:49.862Z,2.10
2022-11-24T12:17:32.878Z,2.10
2022-11-24T12:20:23.941Z,2.10
2022-11-24T12:23:02.607Z,2.10
2022-11-24T12:25:45.836Z,2.10
2022-11-24T12:28:30.676Z,2.10
2022-11-24T12:31:07.206Z,2.10
2022-11-24T12:33:46.250Z,2.10
2022-11-24T12:36:26.970Z,2.20
2022-11-24T12:39:19.277Z,2.20
2022-11-24T12:42:09.296Z,2.20
2022-11-24T12:44:50.325Z,2.20
2022-11-24T12:47:29.469Z,2.20
2022-11-24T12:50:03.986Z,2.10
2022-11-24T12:52:44.327Z,2.20
2022-11-24T12:55:29.397Z,2.20
2022-11-24T12:58:17.501Z,2.20
2022-11-24T13:00:55.937Z,2.20
2022-11-24T13:04:04.169Z,2.20
2022-11-24T13:06:49.293Z,2.30
2022-11-24T13:09:16.813Z,2.20
2022-11-24T13:11:46.119Z,2.30
2022-11-24T13:14:22.639Z,2.20
2022-11-24T13:17:29.541Z,2.20
2022-11-24T13:19:45.174Z,2.20
2022-11-24T13:22:16.989Z,2.20
2022-11-24T13:24:44.910Z,2.20
2022-11-24T13:27:18.909Z,2.20
2022-11-24T13:29:46.100Z,2.20
2022-11-24T13:32:14.941Z,2.30
2022-11-24T13:34:45.717Z,2.30
2022-11-24T13:37:31.504Z,2.30
2022-11-24T13:40:11.710Z,2.30
2022-11-24T13:43:00.425Z,2.30
2022-11-24T13:45:40.208Z,2.30
2022-11-24T13:48:19.878Z,2.30
2022-11-24T13:50:50.025Z,2.30
2022-11-24T13:53:55.023Z,2.30
2022-11-24T13:56:23.815Z,2.30
2022-11-24T13:59:24.246Z,2.30
2022-11-24T14:01:57.239Z,1.20
2022-11-24T14:04:31.572Z,2.30
2022-11-24T14:07:12.267Z,2.30
2022-11-24T14:09:43.885Z,2.30
2022-11-24T14:12:13.721Z,2.30
2022-11-24T14:14:40.887Z,2.30
2022-11-24T14:17:08.449Z,2.30
2022-11-24T14:19:37.385Z,2.40
2022-11-24T14:22:10.998Z,2.30
2022-11-24T14:24:41.523Z,2.30
2022-11-24T14:27:19.436Z,2.40
2022-11-24T14:29:56.811Z,2.30
2022-11-24T14:32:26.008Z,3.40
2022-11-24T14:34:54.206Z,2.30
2022-11-24T14:37:21.066Z,2.30
2022-11-24T14:39:47.911Z,2.30
2022-11-24T14:42:25.338Z,2.30
2022-11-24T14:44:59.978Z,2.30
2022-11-24T14:47:37.111Z,2.30
2022-11-24T14:50:19.657Z,2.30
2022-11-24T14:52:56.908Z,2.30
2022-11-24T14:55:28.404Z,2.30
2022-11-24T14:57:55.328Z,2.30
2022-11-24T15:00:25.105Z,2.30
2022-11-24T15:03:00.787Z,2.30
2022-11-24T15:05:58.449Z,2.30
2022-11-24T15:08:26.403Z,2.30
2022-11-24T15:11:00.440Z,2.60
2022-11-24T15:13:27.210Z,2.30
2022-11-24T15:16:04.558Z,2.30
2022-11-24T15:18:43.128Z,2.40
2022-11-24T15:21:15.585Z,2.30
2022-11-24T15:24:05.146Z,2.30
2022-11-24T15:26:36.740Z,2.30
2022-11-24T15:29:10.328Z,2.30
2022-11-24T15:31:39.698Z,2.30
2022-11-24T15:34:06.566Z,2.30
2022-11-24T15:36:33.298Z,2.30
2022-11-24T15:39:00.133Z,2.30
2022-11-24T15:41:29.636Z,2.30
2022-11-24T15:43:59.447Z,2.30
2022-11-24T15:46:27.407Z,2.30
2022-11-24T15:48:54.170Z,2.30
2022-11-24T15:51:20.943Z,2.30
2022-11-24T15:53:57.182Z,2.40
2022-11-24T15:56:30.763Z,2.40
2022-11-24T15:58:57.600Z,2.40
2022-11-24T16:01:24.898Z,2.40
2022-11-24T16:03:56.432Z,2.40
2022-11-24T16:06:25.146Z,2.40
2022-11-24T16:08:55.232Z,2.40
2022-11-24T16:11:22.408Z,2.40
2022-11-24T16:13:54.035Z,3.80
2022-11-24T16:16:24.861Z,2.40
2022-11-24T16:18:51.735Z,2.40
2022-11-24T16:21:23.268Z,2.30
2022-11-24T16:23:52.190Z,2.30
2022-11-24T16:26:21.215Z,2.40
2022-11-24T16:28:50.568Z,2.40
2022-11-24T16:31:18.436Z,2.30
2022-11-24T16:33:46.276Z,2.00
2022-11-24T16:36:13.813Z,2.30
2022-11-24T16:38:40.523Z,2.30
2022-11-24T16:41:10.407Z,2.30
2022-11-24T16:43:37.558Z,2.30
2022-11-24T16:46:16.280Z,2.30
2022-11-24T16:48:43.718Z,2.30
2022-11-24T16:51:15.256Z,2.30
2022-11-24T16:53:42.177Z,2.30
2022-11-24T16:56:09.405Z,2.30
2022-11-24T16:58:40.022Z,2.30
2022-11-24T17:01:11.650Z,2.30
2022-11-24T17:03:41.315Z,2.30
2022-11-24T17:06:09.794Z,2.30
2022-11-24T17:08:37.381Z,2.30
2022-11-24T17:11:07.349Z,2.30
2022-11-24T17:13:36.266Z,2.30
2022-11-24T17:16:07.405Z,2.30
2022-11-24T17:18:34.270Z,2.30
2022-11-24T17:21:07.727Z,2.10
2022-11-24T17:23:41.078Z,2.10
2022-11-24T17:26:12.993Z,2.10
2022-11-24T17:28:42.161Z,2.10
2022-11-24T17:31:32.297Z,2.10
2022-11-24T17:34:02.974Z,2.10
2022-11-24T17:36:32.730Z,2.20
2022-11-24T17:39:00.211Z,2.10
2022-11-24T17:41:27.890Z,2.10
2022-11-24T17:43:55.945Z,2.10
2022-11-24T17:46:23.896Z,2.00
2022-11-24T17:48:50.721Z,2.10
2022-11-24T17:51:19.160Z,2.10
2022-11-24T17:53:46.809Z,2.10
2022-11-24T17:56:18.379Z,2.10
2022-11-24T17:58:49.839Z,2.10
2022-11-24T18:01:18.801Z,2.20
2022-11-24T18:03:53.398Z,2.20
2022-11-24T18:06:20.683Z,2.20
2022-11-24T18:08:47.417Z,2.20
2022-11-24T18:11:31.417Z,2.20
2022-11-24T18:14:01.454Z,2.10
2022-11-24T18:16:31.174Z,2.10
2022-11-24T18:19:14.894Z,2.10
2022-11-24T18:21:42.313Z,2.10
2022-11-24T18:24:09.947Z,3.30
2022-11-24T18:26:39.084Z,2.10
2022-11-24T18:29:05.907Z,2.10
2022-11-24T18:31:35.812Z,2.10
2022-11-24T18:34:03.290Z,2.00
2022-11-24T18:36:32.655Z,2.00
2022-11-24T18:39:03.664Z,2.00
2022-11-24T18:41:30.441Z,2.10
2022-11-24T18:43:57.223Z,2.10
2022-11-24T18:46:24.014Z,2.10
2022-11-24T18:48:53.020Z,2.10
2022-11-24T18:51:19.753Z,2.10
2022-11-24T18:53:46.661Z,2.10
2022-11-24T18:56:17.098Z,2.00
2022-11-24T18:58:43.912Z,2.10
2022-11-24T19:01:15.698Z,2.10
2022-11-24T19:03:48.964Z,2.10
2022-11-24T19:06:17.815Z,2.00
2022-11-24T19:08:45.171Z,2.10
2022-11-24T19:11:18.879Z,2.10
2022-11-24T19:13:45.721Z,2.10
2022-11-24T19:16:15.221Z,2.10
2022-11-24T19:18:51.864Z,2.10
2022-11-24T19:21:20.270Z,2.00
2022-11-24T19:23:49.483Z,2.00
2022-11-24T19:26:16.186Z,2.00
2022-11-24T19:28:42.917Z,2.80
2022-11-24T19:31:13.525Z,2.10
2022-11-24T19:33:40.655Z,2.50
2022-11-24T19:36:10.653Z,2.10
2022-11-24T19:38:37.417Z,2.00
2022-11-24T19:41:05.861Z,2.00
2022-11-24T19:43:32.741Z,2.00
2022-11-24T19:46:05.915Z,1.90
2022-11-24T19:48:33.688Z,1.90
2022-11-24T19:51:08.522Z,2.00
2022-11-24T19:53:35.899Z,1.90
2022-11-24T19:56:06.973Z,1.90
2022-11-24T19:58:36.600Z,1.90
2022-11-24T20:01:09.827Z,1.90
2022-11-24T20:03:41.572Z,1.90
2022-11-24T20:06:09.215Z,1.90
2022-11-24T20:08:36.647Z,1.80
2022-11-24T20:11:07.232Z,2.00
2022-11-24T20:13:34.539Z,1.80
2022-11-24T20:16:05.398Z,1.80
2022-11-24T20:18:33.630Z,1.80
2022-11-24T20:21:08.643Z,1.80
2022-11-24T20:23:37.971Z,1.90
2022-11-24T20:26:10.145Z,1.80
2022-11-24T20:28:39.225Z,1.80
2022-11-24T20:31:10.983Z,1.90
2022-11-24T20:33:37.789Z,1.90
2022-11-24T20:36:08.346Z,1.90
2022-11-24T20:38:36.213Z,1.90
2022-11-24T20:41:14.326Z,2.00
2022-11-24T20:43:43.574Z,2.00
2022-11-24T20:46:13.454Z,1.90
2022-11-24T20:48:40.312Z,1.90
2022-11-24T20:51:11.845Z,1.80
2022-11-24T20:53:38.584Z,1.90
2022-11-24T20:56:08.989Z,1.80
2022-11-24T20:58:35.992Z,1.90
2022-11-24T21:01:07.329Z,1.90
2022-11-24T21:03:38.422Z,1.90
2022-11-24T21:06:09.421Z,2.00
2022-11-24T21:08:36.927Z,2.00
2022-11-24T21:11:04.472Z,2.00
2022-11-24T21:13:32.897Z,2.00
2022-11-24T21:15:59.696Z,2.00
2022-11-24T21:18:26.436Z,2.00
2022-11-24T21:20:55.682Z,2.00
2022-11-24T21:23:22.423Z,2.00
2022-11-24T21:25:49.135Z,2.10
2022-11-24T21:28:15.835Z,2.00
2022-11-24T21:30:42.537Z,3.10
2022-11-24T21:33:09.254Z,2.10
2022-11-24T21:35:36.403Z,2.00
2022-11-24T21:38:03.590Z,2.00
2022-11-24T21:40:30.281Z,2.10
2022-11-24T21:42:59.732Z,3.00
2022-11-24T21:45:29.094Z,2.10
2022-11-24T21:48:03.298Z,2.10
2022-11-24T21:50:30.008Z,2.10
2022-11-24T21:53:03.630Z,2.10
2022-11-24T21:55:32.974Z,2.10
2022-11-24T21:57:59.661Z,2.10
2022-11-24T22:00:26.423Z,2.10
2022-11-24T22:02:54.542Z,2.10
2022-11-24T22:05:21.229Z,2.10
2022-11-24T22:07:50.368Z,3.70
2022-11-24T22:10:17.261Z,2.10
2022-11-24T22:12:43.996Z,2.10
2022-11-24T22:15:13.095Z,3.30
2022-11-24T22:17:39.799Z,2.10
2022-11-24T22:20:09.558Z,2.10
2022-11-24T22:22:36.281Z,2.10
2022-11-24T22:25:06.083Z,3.80
2022-11-24T22:27:33.148Z,2.10
2022-11-24T22:29:59.906Z,2.10
2022-11-24T22:32:26.602Z,2.10
2022-11-24T22:34:55.832Z,2.00
2022-11-24T22:37:22.511Z,2.00
2022-11-24T22:39:49.306Z,2.00
2022-11-24T22:42:18.456Z,2.00
2022-11-24T22:44:45.181Z,2.00
2022-11-24T22:47:14.443Z,2.00
2022-11-24T22:49:41.127Z,1.90
2022-11-24T22:52:07.830Z,1.80
2022-11-24T22:54:34.761Z,1.90
2022-11-24T22:57:01.713Z,1.90
2022-11-24T22:59:30.634Z,1.90
2022-11-24T23:01:59.562Z,1.80
2022-11-24T23:04:26.363Z,1.80
2022-11-24T23:06:53.161Z,1.90
2022-11-24T23:09:19.848Z,1.90
2022-11-24T23:11:51.338Z,1.80
2022-11-24T23:14:20.559Z,1.90
2022-11-24T23:16:47.345Z,1.90
2022-11-24T23:19:14.116Z,2.00
2022-11-24T23:21:40.830Z,2.20
2022-11-24T23:24:07.863Z,1.70
2022-11-24T23:26:40.972Z,1.80
2022-11-24T23:29:09.964Z,1.80
2022-11-24T23:31:40.300Z,2.20
2022-11-24T23:34:07.231Z,1.80
2022-11-24T23:36:33.981Z,1.80
2022-11-24T23:39:14.248Z,1.70
2022-11-24T23:41:43.456Z,1.80
2022-11-24T23:44:10.162Z,1.80
2022-11-24T23:46:36.864Z,1.90
2022-11-24T23:49:06.451Z,1.90
2022-11-24T23:51:33.379Z,1.90
2022-11-24T23:54:00.314Z,1.80
2022-11-24T23:56:32.801Z,1.90
2022-11-24T23:59:03.333Z,1.90
